Terminal Aerodrome Forecast
Issued by NWS Cheyenne, WY

Home | Current Version | Previous Version | Text Only | Print | Product List | Glossary On
Versions: 1 2 3 4 5 6 7 8 9 10 11 12 13 14 15 16 17 18 19 20 21 22 23 24 25 26 27 28 29 30 31 32 33 34 35 36 37 38
000
FTUS45 KCYS 020700 AAA
TAFCYS
TAF AMD
KCYS 020732Z 0208/0306 32006KT P6SM SCT009 BKN120
     FM021000 30008KT P6SM SCT150
     FM021600 29017G25KT P6SM SCT200
     FM030300 36012G20KT P6SM BKN030 OVC080=

USA.gov is the U.S. government's official web portal to all federal, state and local government web resources and services.